Time;durP1;ratioP1;P1;durP2;ratioP2;P2;SDS_P1;SDS_P2;PMS_P1;PMS_P2;Temp;Humidity;BMP_temperature;BMP_pressure;BME280_temperature;BME280_humidity;BME280_pressure;Samples;Min_cycle;Max_cycle;Signal;HPM_P1;HPM_P2
2022/03/24 00:01:35;;;;;;;65.47;49.92;;;28.40;99.90;;;;;;5105317;28;20034;-65
2022/03/24 00:04:02;;;;;;;44.50;29.15;;;28.40;99.90;;;;;;5103733;28;20365;-65
2022/03/24 00:06:29;;;;;;;59.60;38.55;;;28.50;99.90;;;;;;5114152;28;20073;-64
2022/03/24 00:08:56;;;;;;;74.05;48.38;;;28.60;99.90;;;;;;5113716;28;20027;-64
2022/03/24 00:11:22;;;;;;;110.50;57.08;;;28.70;99.90;;;;;;5114201;28;20031;-64
2022/03/24 00:13:50;;;;;;;298.48;72.47;;;28.70;99.90;;;;;;5114082;28;20102;-64
2022/03/24 00:16:18;;;;;;;60.22;36.40;;;28.80;99.90;;;;;;5112457;28;20479;-64
2022/03/24 00:18:46;;;;;;;63.00;26.85;;;28.80;99.90;;;;;;5113890;28;20103;-64
2022/03/24 00:21:16;;;;;;;45.22;26.35;;;28.80;99.90;;;;;;5104945;28;20381;-65
2022/03/24 00:23:45;;;;;;;40.97;26.85;;;28.90;99.90;;;;;;5111080;28;20048;-65
2022/03/24 00:26:12;;;;;;;34.53;23.70;;;28.90;99.90;;;;;;5113572;28;20016;-64
2022/03/24 00:28:40;;;;;;;58.10;40.67;;;28.90;99.90;;;;;;5114472;28;20441;-65
2022/03/24 00:31:06;;;;;;;59.20;41.63;;;28.90;99.90;;;;;;5113547;28;20032;-64
2022/03/24 00:33:33;;;;;;;36.80;22.40;;;28.90;99.90;;;;;;5113793;28;20024;-65
2022/03/24 00:36:00;;;;;;;35.03;23.63;;;28.90;99.90;;;;;;5113438;28;20064;-64
2022/03/24 00:38:26;;;;;;;27.35;17.58;;;29.00;99.90;;;;;;5113759;28;20020;-61
2022/03/24 00:40:54;;;;;;;28.80;17.77;;;29.10;99.90;;;;;;5113661;28;20039;-61
2022/03/24 00:43:21;;;;;;;28.50;16.30;;;29.20;99.90;;;;;;5113623;28;20062;-61
2022/03/24 00:45:47;;;;;;;27.15;17.92;;;29.20;99.90;;;;;;5112648;28;20146;-61
2022/03/24 00:48:14;;;;;;;26.15;16.58;;;29.20;99.90;;;;;;5112802;28;20495;-61
2022/03/24 00:50:41;;;;;;;29.27;17.45;;;29.30;99.90;;;;;;5113123;28;20023;-60
2022/03/24 00:53:08;;;;;;;27.55;17.45;;;29.30;99.90;;;;;;5110590;28;20027;-61
2022/03/24 00:55:35;;;;;;;40.97;21.20;;;29.40;99.90;;;;;;5112755;28;20436;-61
2022/03/24 00:58:01;;;;;;;24.13;15.60;;;29.50;99.90;;;;;;5113363;28;20480;-61
2022/03/24 01:00:28;;;;;;;21.15;15.32;;;29.50;99.90;;;;;;5112441;28;20031;-61
2022/03/24 01:02:55;;;;;;;21.67;14.05;;;29.50;99.90;;;;;;5112231;28;20035;-60
2022/03/24 01:05:24;;;;;;;23.63;15.40;;;29.60;99.90;;;;;;5113379;28;20472;-61
2022/03/24 01:07:51;;;;;;;29.95;17.30;;;29.60;99.90;;;;;;5113445;28;20387;-59
2022/03/24 01:10:19;;;;;;;26.90;16.05;;;29.60;99.90;;;;;;5113428;28;20024;-61
2022/03/24 01:12:47;;;;;;;22.38;14.38;;;29.70;99.90;;;;;;5114485;28;20036;-60
2022/03/24 01:15:17;;;;;;;21.38;12.85;;;29.90;99.90;;;;;;5117683;28;20069;-59
2022/03/24 01:17:45;;;;;;;24.58;13.70;;;30.00;99.90;;;;;;5117192;28;20032;-60
2022/03/24 01:20:14;;;;;;;22.83;12.57;;;30.00;99.90;;;;;;5117307;28;20027;-60
2022/03/24 01:22:41;;;;;;;20.38;12.63;;;30.10;99.90;;;;;;5116119;28;20114;-61
2022/03/24 01:25:08;;;;;;;20.23;11.73;;;30.00;99.90;;;;;;5117142;28;20040;-59
2022/03/24 01:27:38;;;;;;;20.95;12.70;;;30.00;99.90;;;;;;5116841;28;20030;-59
2022/03/24 01:30:09;;;;;;;23.58;12.27;;;30.10;99.90;;;;;;5116841;28;20543;-58
2022/03/24 01:32:37;;;;;;;35.97;13.63;;;30.20;99.90;;;;;;5111168;28;20036;-62
2022/03/24 01:35:07;;;;;;;24.95;13.65;;;30.30;99.90;;;;;;5101548;28;20071;-61
2022/03/24 01:37:35;;;;;;;25.10;14.82;;;30.40;99.90;;;;;;5095128;28;20031;-62
2022/03/24 01:40:04;;;;;;;27.00;13.13;;;30.50;99.90;;;;;;5101885;28;20024;-66
2022/03/24 01:42:34;;;;;;;20.75;12.07;;;30.50;99.90;;;;;;5112498;28;20027;-64
2022/03/24 01:45:02;;;;;;;19.75;12.90;;;30.50;99.90;;;;;;5116052;28;20031;-64
2022/03/24 01:47:29;;;;;;;24.88;12.40;;;30.40;99.90;;;;;;5117195;28;20410;-64
2022/03/24 01:49:58;;;;;;;15.82;10.88;;;30.30;99.90;;;;;;5110200;28;20076;-64
2022/03/24 01:52:26;;;;;;;21.13;11.20;;;30.20;99.90;;;;;;5101558;28;20081;-65
2022/03/24 01:54:55;;;;;;;217.45;153.70;;;30.10;99.90;;;;;;5095940;28;20115;-65
2022/03/24 01:57:24;;;;;;;32.72;22.88;;;30.10;99.90;;;;;;5115243;28;20028;-64
2022/03/24 01:59:51;;;;;;;70.03;53.85;;;30.20;99.90;;;;;;5115618;28;20540;-64
2022/03/24 02:02:18;;;;;;;47.85;32.72;;;30.30;99.90;;;;;;5116206;28;20030;-65
2022/03/24 02:04:45;;;;;;;30.35;21.33;;;30.40;99.90;;;;;;5116024;28;20103;-63
2022/03/24 02:07:11;;;;;;;17.35;12.90;;;30.40;99.90;;;;;;5115662;28;20423;-62
2022/03/24 02:09:39;;;;;;;19.10;11.20;;;30.50;99.90;;;;;;5099809;28;20036;-63
2022/03/24 02:12:08;;;;;;;21.02;11.18;;;30.60;99.90;;;;;;5098082;28;20039;-62
2022/03/24 02:14:35;;;;;;;18.17;10.73;;;30.70;99.90;;;;;;5116300;28;20027;-62
2022/03/24 02:17:04;;;;;;;16.95;12.02;;;30.70;99.90;;;;;;5116349;28;20032;-62
2022/03/24 02:19:31;;;;;;;20.10;11.10;;;30.70;99.90;;;;;;5114456;28;20570;-61
2022/03/24 02:22:10;;;;;;;75.60;50.58;;;30.50;99.90;;;;;;5114042;28;20016;-62
2022/03/24 02:24:37;;;;;;;23.40;16.08;;;30.40;99.90;;;;;;5098739;28;20042;-62
2022/03/24 02:27:04;;;;;;;18.17;12.80;;;30.40;99.90;;;;;;5114925;28;20033;-63
2022/03/24 02:29:31;;;;;;;19.60;14.07;;;30.40;99.90;;;;;;5115779;28;20043;-66
2022/03/24 02:31:58;;;;;;;15.98;11.82;;;30.40;99.90;;;;;;5110595;28;20361;-61
2022/03/24 02:37:13;;;;;;;18.10;11.82;;;30.60;99.90;;;;;;5106718;28;20085;-60
2022/03/24 02:39:42;;;;;;;13.05;11.00;;;30.90;99.90;;;;;;5104122;28;20467;-59
2022/03/24 02:42:14;;;;;;;17.77;11.00;;;30.90;99.90;;;;;;5106555;28;20028;-61
2022/03/24 02:44:45;;;;;;;12.98;9.90;;;31.00;99.90;;;;;;5107390;28;20012;-61
2022/03/24 02:47:13;;;;;;;16.05;10.60;;;31.10;99.90;;;;;;5111737;28;20376;-61
2022/03/24 02:49:40;;;;;;;16.95;11.02;;;31.10;99.90;;;;;;5105391;28;20061;-61
2022/03/24 02:52:08;;;;;;;16.08;11.40;;;31.30;99.90;;;;;;5104597;28;20066;-61
2022/03/24 02:54:35;;;;;;;18.85;10.90;;;31.30;99.90;;;;;;5101756;28;20032;-62
2022/03/24 02:57:02;;;;;;;15.85;10.48;;;31.20;99.90;;;;;;5089117;28;20016;-60
2022/03/24 02:59:29;;;;;;;99.03;74.40;;;31.20;99.90;;;;;;5099860;28;20051;-60
2022/03/24 03:01:59;;;;;;;53.42;34.42;;;31.20;99.90;;;;;;5104321;28;20477;-60
2022/03/24 03:04:27;;;;;;;66.90;46.28;;;31.40;99.90;;;;;;5095578;28;20056;-60
2022/03/24 03:06:55;;;;;;;46.28;34.45;;;31.60;99.90;;;;;;5100798;28;20059;-60
2022/03/24 03:09:23;;;;;;;43.70;34.78;;;31.60;99.90;;;;;;5105387;28;20028;-60
2022/03/24 03:11:52;;;;;;;22.30;13.85;;;31.60;99.90;;;;;;5099932;28;20035;-59
2022/03/24 03:14:19;;;;;;;16.63;10.27;;;31.70;99.90;;;;;;5095301;28;20031;-57
2022/03/24 03:16:46;;;;;;;18.33;10.90;;;31.80;99.90;;;;;;5101363;28;20103;-60
2022/03/24 03:19:14;;;;;;;16.35;10.73;;;31.80;99.90;;;;;;5107801;28;20027;-61
2022/03/24 03:21:42;;;;;;;14.88;10.77;;;31.70;99.90;;;;;;5112197;28;20357;-61
2022/03/24 03:24:10;;;;;;;19.23;10.15;;;31.80;99.90;;;;;;5108159;28;20015;-64
2022/03/24 03:26:38;;;;;;;18.40;10.13;;;32.10;99.90;;;;;;5105205;28;20472;-67
2022/03/24 03:29:06;;;;;;;16.00;11.05;;;32.10;99.90;;;;;;5106192;28;20121;-61
2022/03/24 03:31:34;;;;;;;18.80;11.02;;;32.10;99.90;;;;;;5105170;28;20032;-62
2022/03/24 03:34:02;;;;;;;18.00;10.70;;;32.20;99.90;;;;;;5112902;28;20019;-62
2022/03/24 03:36:30;;;;;;;15.73;10.70;;;32.20;99.90;;;;;;5107468;28;20608;-62
2022/03/24 03:38:58;;;;;;;17.80;11.38;;;32.20;99.90;;;;;;5104527;28;20030;-63
2022/03/24 03:41:26;;;;;;;16.92;11.48;;;32.30;99.90;;;;;;5112128;28;20019;-63
2022/03/24 03:43:53;;;;;;;19.08;11.30;;;32.40;99.90;;;;;;5106220;28;20411;-61
2022/03/24 03:46:20;;;;;;;20.52;13.27;;;32.40;99.90;;;;;;5106570;28;20027;-62
2022/03/24 03:48:47;;;;;;;29.58;20.98;;;32.40;99.90;;;;;;5107274;28;20058;-63
2022/03/24 03:51:14;;;;;;;23.02;13.48;;;32.30;99.90;;;;;;5103392;28;20365;-63
2022/03/24 03:53:41;;;;;;;17.75;11.98;;;32.30;99.90;;;;;;5106459;28;20031;-61
2022/03/24 03:56:09;;;;;;;19.70;12.10;;;32.20;99.90;;;;;;5107870;28;20027;-66
2022/03/24 03:58:36;;;;;;;31.90;20.55;;;32.20;99.90;;;;;;5107222;28;20085;-61
2022/03/24 04:01:04;;;;;;;19.08;13.27;;;32.10;99.90;;;;;;5102568;28;20115;-61
2022/03/24 04:03:33;;;;;;;18.15;13.43;;;32.00;99.90;;;;;;5105478;28;20019;-63
2022/03/24 04:06:05;;;;;;;25.98;12.15;;;32.00;99.90;;;;;;5107583;28;20024;-61
2022/03/24 04:08:31;;;;;;;;;;;32.00;99.90;;;;;;5098353;28;20024;-61
2022/03/24 04:10:58;;;;;;;20.10;11.05;;;32.20;99.90;;;;;;5101470;28;19918;-60
2022/03/24 04:13:25;;;;;;;14.45;10.30;;;32.40;99.90;;;;;;5102295;28;20036;-61
2022/03/24 04:15:54;;;;;;;24.85;10.63;;;32.20;99.90;;;;;;5102750;28;20411;-62
2022/03/24 04:18:23;;;;;;;24.52;11.48;;;32.20;99.90;;;;;;5105204;28;20036;-60
2022/03/24 04:20:50;;;;;;;18.88;11.48;;;32.20;99.90;;;;;;5102496;28;20020;-61
2022/03/24 04:23:19;;;;;;;17.50;11.25;;;32.20;99.90;;;;;;5104538;28;20024;-62
2022/03/24 04:25:46;;;;;;;16.95;10.77;;;32.30;99.90;;;;;;5102956;28;20436;-61
2022/03/24 04:28:14;;;;;;;14.43;11.27;;;32.40;99.70;;;;;;5100442;28;20043;-60
2022/03/24 04:30:41;;;;;;;18.45;12.02;;;32.30;99.70;;;;;;5087065;28;20020;-60
2022/03/24 04:33:07;;;;;;;19.08;12.60;;;32.30;98.90;;;;;;5084952;28;20669;-60
2022/03/24 04:35:36;;;;;;;17.27;11.18;;;32.30;99.30;;;;;;5080553;28;20028;-60
2022/03/24 04:38:04;;;;;;;15.35;11.15;;;32.40;99.30;;;;;;5084604;28;20034;-57
2022/03/24 04:40:31;;;;;;;15.07;9.95;;;32.60;98.90;;;;;;5086125;28;20036;-58
2022/03/24 04:42:58;;;;;;;21.95;10.40;;;32.90;97.10;;;;;;5088582;28;20522;-58
2022/03/24 04:45:27;;;;;;;17.13;10.30;;;33.00;95.80;;;;;;5090136;28;20059;-59
2022/03/24 04:47:54;;;;;;;13.95;10.30;;;33.00;96.60;;;;;;5083907;28;20024;-60
2022/03/24 04:50:21;;;;;;;19.13;10.65;;;32.90;96.80;;;;;;5090441;28;20114;-60
2022/03/24 04:52:49;;;;;;;15.40;10.13;;;32.90;96.80;;;;;;5096415;28;20447;-59
2022/03/24 04:55:17;;;;;;;15.40;10.38;;;33.00;96.10;;;;;;5095900;28;20499;-60
2022/03/24 04:57:44;;;;;;;13.05;9.95;;;33.10;96.10;;;;;;5089128;28;20032;-58
2022/03/24 05:00:12;;;;;;;19.38;10.27;;;33.30;95.60;;;;;;5094735;28;20059;-59
2022/03/24 05:02:40;;;;;;;14.20;10.07;;;33.20;95.40;;;;;;5092659;28;20030;-60
2022/03/24 05:05:07;;;;;;;17.40;11.20;;;33.20;95.50;;;;;;5094785;28;20024;-58
2022/03/24 05:07:34;;;;;;;13.25;9.93;;;33.30;95.00;;;;;;5096483;28;20032;-60
2022/03/24 05:10:01;;;;;;;15.45;10.73;;;33.30;93.60;;;;;;5096283;28;20099;-60
2022/03/24 05:12:27;;;;;;;14.00;10.35;;;33.50;94.00;;;;;;5094397;28;20059;-60
2022/03/24 05:14:54;;;;;;;20.83;10.15;;;33.70;93.40;;;;;;5095244;28;20476;-62
2022/03/24 05:17:21;;;;;;;31.33;27.55;;;33.70;92.00;;;;;;5096713;28;20102;-62
2022/03/24 05:19:48;;;;;;;21.45;14.75;;;33.70;91.50;;;;;;5096083;28;20047;-61
2022/03/24 05:22:16;;;;;;;21.85;14.68;;;33.90;90.90;;;;;;5095430;28;20732;-62
2022/03/24 05:24:43;;;;;;;21.85;17.80;;;34.00;90.80;;;;;;5096439;28;20464;-59
2022/03/24 05:27:10;;;;;;;20.92;12.95;;;34.10;90.30;;;;;;5096047;28;20027;-62
2022/03/24 05:29:38;;;;;;;14.32;10.85;;;34.10;90.50;;;;;;5111798;28;20082;-61
2022/03/24 05:32:05;;;;;;;15.77;11.48;;;34.00;89.40;;;;;;5114522;28;20023;-61
2022/03/24 05:34:33;;;;;;;16.90;10.93;;;33.90;90.40;;;;;;5112727;28;20467;-62
2022/03/24 05:37:00;;;;;;;17.27;10.98;;;33.80;90.20;;;;;;5115548;28;20523;-61
2022/03/24 05:39:26;;;;;;;27.33;13.75;;;33.80;90.10;;;;;;5116235;28;20038;-62
2022/03/24 05:41:53;;;;;;;19.10;11.75;;;33.90;90.50;;;;;;5110963;28;20388;-62
2022/03/24 05:44:20;;;;;;;19.67;11.10;;;34.10;90.20;;;;;;5112819;28;20074;-62
2022/03/24 05:46:47;;;;;;;32.53;11.57;;;33.90;87.40;;;;;;5112261;28;20008;-61
2022/03/24 05:49:16;;;;;;;49.40;15.32;;;33.90;88.00;;;;;;5107901;28;20032;-63
2022/03/24 05:51:45;;;;;;;19.67;13.20;;;33.90;88.70;;;;;;5111403;28;20032;-62
2022/03/24 05:54:13;;;;;;;19.40;11.45;;;33.90;87.70;;;;;;5111463;28;20031;-61
2022/03/24 05:56:41;;;;;;;15.13;11.65;;;34.10;87.50;;;;;;5111983;28;20054;-63
2022/03/24 05:59:08;;;;;;;21.60;14.00;;;34.20;86.80;;;;;;5111262;28;20067;-61
2022/03/24 06:01:35;;;;;;;19.55;12.23;;;34.40;87.20;;;;;;5111732;28;20119;-63
2022/03/24 06:04:03;;;;;;;21.77;13.23;;;34.30;86.80;;;;;;5109886;28;20020;-61
2022/03/24 06:06:34;;;;;;;15.73;12.60;;;34.20;86.70;;;;;;5110213;28;20020;-63
2022/03/24 06:09:06;;;;;;;20.73;12.68;;;34.20;86.70;;;;;;5111579;28;20030;-59
2022/03/24 06:11:35;;;;;;;17.42;12.43;;;34.10;85.30;;;;;;5111807;28;20060;-65
2022/03/24 06:14:03;;;;;;;23.48;13.20;;;34.20;86.20;;;;;;5112915;28;20428;-62
2022/03/24 06:16:30;;;;;;;17.02;10.30;;;34.30;84.30;;;;;;5112673;28;20039;-62
2022/03/24 06:18:57;;;;;;;20.85;11.85;;;34.50;81.70;;;;;;5113234;28;20102;-64
2022/03/24 06:21:23;;;;;;;17.80;12.05;;;34.60;84.70;;;;;;5114477;28;20020;-62
2022/03/24 06:23:50;;;;;;;14.95;11.00;;;34.70;82.40;;;;;;5115783;28;20054;-64
2022/03/24 06:26:20;;;;;;;12.45;9.68;;;34.70;81.90;;;;;;5115508;28;20031;-61
2022/03/24 06:28:48;;;;;;;18.95;10.13;;;34.70;80.30;;;;;;5115068;28;20064;-64
2022/03/24 06:31:15;;;;;;;17.52;10.50;;;34.60;80.60;;;;;;5115833;28;20028;-62
2022/03/24 06:33:42;;;;;;;25.08;13.60;;;34.70;77.30;;;;;;5114588;28;20020;-61
2022/03/24 06:36:09;;;;;;;24.73;13.35;;;34.80;78.00;;;;;;5112579;28;20471;-63
2022/03/24 06:38:37;;;;;;;19.15;13.15;;;34.80;79.40;;;;;;5104420;28;20506;-62
2022/03/24 06:41:05;;;;;;;22.38;15.52;;;34.80;79.40;;;;;;5104244;28;20114;-61
2022/03/24 06:43:34;;;;;;;16.73;10.27;;;34.70;77.90;;;;;;5110277;28;20053;-63
2022/03/24 06:46:01;;;;;;;10.95;8.82;;;34.80;77.10;;;;;;5114901;28;20072;-62
2022/03/24 06:48:28;;;;;;;18.05;9.35;;;34.80;76.10;;;;;;5115377;28;20094;-62
2022/03/24 06:50:54;;;;;;;14.50;9.30;;;34.90;74.80;;;;;;5113660;28;20058;-60
2022/03/24 06:53:21;;;;;;;12.65;9.85;;;35.00;75.40;;;;;;5111081;28;20024;-62
2022/03/24 06:55:48;;;;;;;13.18;9.82;;;35.20;73.80;;;;;;5115061;28;20039;-62
2022/03/24 06:58:15;;;;;;;13.18;9.25;;;35.20;71.60;;;;;;5114887;28;20115;-60
2022/03/24 07:00:41;;;;;;;16.83;10.15;;;35.20;72.70;;;;;;5114878;28;20026;-62
2022/03/24 07:03:08;;;;;;;21.58;15.93;;;35.10;75.10;;;;;;5114340;28;20058;-62
2022/03/24 07:05:35;;;;;;;14.98;10.32;;;35.30;74.40;;;;;;5114460;28;20027;-61
2022/03/24 07:08:02;;;;;;;21.33;16.13;;;35.30;73.80;;;;;;5114421;28;20023;-62
2022/03/24 07:10:29;;;;;;;56.13;46.83;;;35.30;76.80;;;;;;5111673;28;20032;-62
2022/03/24 07:12:58;;;;;;;26.45;19.70;;;35.30;79.60;;;;;;5114012;28;20024;-62
2022/03/24 07:15:26;;;;;;;15.25;11.30;;;35.40;79.50;;;;;;5114121;28;20032;-62
2022/03/24 07:17:53;;;;;;;25.45;11.10;;;35.40;79.70;;;;;;5114664;28;20023;-62
2022/03/24 07:20:20;;;;;;;19.80;15.30;;;35.50;77.80;;;;;;5114150;28;20032;-62
2022/03/24 07:22:47;;;;;;;82.10;68.22;;;35.50;79.00;;;;;;5112101;28;20027;-63
2022/03/24 07:25:14;;;;;;;25.92;19.45;;;35.50;78.40;;;;;;5114293;28;20040;-62
2022/03/24 07:27:42;;;;;;;69.70;49.25;;;35.40;77.60;;;;;;5114887;28;20480;-62
2022/03/24 07:30:10;;;;;;;75.03;50.72;;;35.40;75.90;;;;;;5114635;28;20387;-63
2022/03/24 07:32:37;;;;;;;198.70;148.63;;;35.50;74.60;;;;;;5114961;28;20058;-62
2022/03/24 07:35:04;;;;;;;119.63;83.90;;;35.60;74.70;;;;;;5105799;28;20031;-63
2022/03/24 07:37:31;;;;;;;278.95;220.13;;;35.60;74.50;;;;;;5104827;28;20015;-63
2022/03/24 07:39:58;;;;;;;232.70;175.85;;;35.70;74.50;;;;;;5113716;28;20039;-63
2022/03/24 07:42:25;;;;;;;32.17;24.13;;;35.70;73.90;;;;;;5114888;28;20031;-61
2022/03/24 07:44:52;;;;;;;40.80;29.35;;;35.70;72.70;;;;;;5114431;28;20025;-63
2022/03/24 07:47:19;;;;;;;29.10;21.38;;;35.80;74.30;;;;;;5114036;28;20591;-60
2022/03/24 07:49:46;;;;;;;16.20;11.23;;;35.60;76.60;;;;;;5113278;28;20439;-61
2022/03/24 07:52:15;;;;;;;24.02;17.02;;;35.40;75.80;;;;;;5112490;28;20424;-62
2022/03/24 07:54:59;;;;;;;35.20;20.08;;;35.30;76.60;;;;;;5114087;28;20065;-60
2022/03/24 07:57:30;;;;;;;153.73;122.78;;;35.20;76.60;;;;;;5111678;28;20114;-64
2022/03/24 07:59:58;;;;;;;25.17;17.27;;;35.10;76.90;;;;;;5111856;28;20032;-61
2022/03/24 08:02:25;;;;;;;18.55;12.90;;;35.00;76.40;;;;;;5114683;28;20055;-62
2022/03/24 08:04:53;;;;;;;26.77;16.83;;;35.00;76.50;;;;;;5106427;28;20085;-61
2022/03/24 08:07:21;;;;;;;31.10;18.58;;;35.10;77.10;;;;;;5100332;28;20480;-61
2022/03/24 08:09:50;;;;;;;23.30;15.60;;;35.10;77.10;;;;;;5109150;28;20034;-62
2022/03/24 08:12:17;;;;;;;39.65;31.02;;;35.10;76.90;;;;;;5104865;28;20024;-62
2022/03/24 08:14:44;;;;;;;39.50;22.48;;;35.10;76.40;;;;;;5108943;28;20093;-62
2022/03/24 08:17:11;;;;;;;19.25;11.82;;;35.10;76.20;;;;;;5104746;28;20035;-62
2022/03/24 08:19:38;;;;;;;16.67;11.27;;;35.10;81.20;;;;;;5108302;28;20027;-62
2022/03/24 08:22:04;;;;;;;19.42;10.07;;;35.10;83.10;;;;;;5108623;28;20035;-62
2022/03/24 08:24:31;;;;;;;14.55;10.57;;;34.90;84.10;;;;;;5104520;28;20023;-62
2022/03/24 08:26:58;;;;;;;21.63;11.13;;;34.80;85.00;;;;;;5105191;28;20065;-63
2022/03/24 08:29:24;;;;;;;12.20;8.90;;;34.70;84.90;;;;;;5104420;28;20088;-62
2022/03/24 08:31:51;;;;;;;17.58;9.27;;;34.40;85.70;;;;;;5085919;28;20035;-62
2022/03/24 08:34:18;;;;;;;101.63;83.85;;;34.30;84.40;;;;;;5100509;28;20043;-62
2022/03/24 08:36:45;;;;;;;134.65;97.85;;;34.20;85.40;;;;;;5094879;28;20375;-62
2022/03/24 08:39:11;;;;;;;42.95;32.47;;;34.10;87.70;;;;;;5106765;28;20509;-63
2022/03/24 08:41:38;;;;;;;25.05;17.10;;;34.10;86.50;;;;;;5100820;28;20073;-62
2022/03/24 08:44:05;;;;;;;34.75;21.65;;;34.00;87.00;;;;;;5095788;28;20028;-62
2022/03/24 08:46:32;;;;;;;25.88;16.02;;;33.90;88.50;;;;;;5102309;28;20039;-61
2022/03/24 08:48:59;;;;;;;16.33;9.98;;;33.90;88.20;;;;;;5104685;28;20020;-62
2022/03/24 08:51:27;;;;;;;15.93;9.23;;;33.80;88.50;;;;;;5102033;28;20781;-63
2022/03/24 08:53:54;;;;;;;12.13;9.05;;;33.80;88.80;;;;;;5102544;28;20503;-62
2022/03/24 08:56:21;;;;;;;12.02;8.63;;;33.70;89.40;;;;;;5099462;28;20085;-61
2022/03/24 08:58:48;;;;;;;22.08;9.68;;;33.60;89.50;;;;;;5100556;28;20095;-62
2022/03/24 09:01:14;;;;;;;14.05;9.73;;;33.60;89.30;;;;;;5098675;28;20027;-62
2022/03/24 09:03:41;;;;;;;16.52;10.90;;;33.40;87.70;;;;;;5104800;28;20495;-62
2022/03/24 09:06:09;;;;;;;16.17;10.52;;;33.30;89.20;;;;;;5108485;28;20036;-62
2022/03/24 09:08:36;;;;;;;20.33;12.60;;;33.40;90.40;;;;;;5102109;28;20099;-61
2022/03/24 09:11:03;;;;;;;36.63;24.60;;;33.50;89.00;;;;;;5108897;28;20355;-60
2022/03/24 09:13:30;;;;;;;42.80;28.27;;;33.40;90.00;;;;;;5112168;28;20034;-62
2022/03/24 09:15:57;;;;;;;27.45;16.15;;;33.40;89.10;;;;;;5107938;28;20028;-63
2022/03/24 09:18:23;;;;;;;33.05;20.17;;;33.30;90.30;;;;;;5109505;28;20042;-60
2022/03/24 09:20:50;;;;;;;63.80;46.38;;;33.30;90.10;;;;;;5112023;28;20039;-61
2022/03/24 09:23:17;;;;;;;25.45;14.73;;;33.30;90.40;;;;;;5112461;28;20472;-60
2022/03/24 09:25:43;;;;;;;20.27;13.30;;;33.30;90.00;;;;;;5110036;28;20039;-56
2022/03/24 09:28:10;;;;;;;20.70;12.50;;;33.30;89.30;;;;;;5105694;28;20040;-57
2022/03/24 09:30:37;;;;;;;18.98;12.13;;;33.30;89.70;;;;;;5101499;28;20444;-60
2022/03/24 09:33:04;;;;;;;15.68;11.73;;;33.20;89.20;;;;;;5103249;28;20036;-59
2022/03/24 09:35:31;;;;;;;17.88;13.73;;;33.20;89.00;;;;;;5109486;28;20039;-57
2022/03/24 09:37:58;;;;;;;20.40;16.05;;;33.10;89.60;;;;;;5110586;28;20027;-58
2022/03/24 09:40:25;;;;;;;236.52;157.13;;;33.00;89.30;;;;;;5109487;28;20032;-59
2022/03/24 09:42:52;;;;;;;75.65;24.27;;;33.20;90.10;;;;;;5110163;28;20023;-58
2022/03/24 09:45:19;;;;;;;38.75;15.20;;;33.20;89.20;;;;;;5110297;28;20049;-58
2022/03/24 09:47:46;;;;;;;22.55;16.23;;;33.20;90.20;;;;;;5114717;28;20031;-59
2022/03/24 09:50:14;;;;;;;20.63;14.30;;;33.10;89.40;;;;;;5112151;28;20035;-57
2022/03/24 09:52:41;;;;;;;40.53;32.67;;;33.00;88.20;;;;;;5108257;28;20032;-61
2022/03/24 09:55:09;;;;;;;55.90;40.75;;;32.80;90.10;;;;;;5111461;28;20372;-59
2022/03/24 09:57:36;;;;;;;33.25;22.67;;;32.90;90.30;;;;;;5107878;28;20077;-61
2022/03/24 10:00:05;;;;;;;32.10;18.23;;;32.90;90.40;;;;;;5110993;28;20022;-60
2022/03/24 10:02:32;;;;;;;26.33;16.60;;;32.90;89.00;;;;;;5112557;28;20019;-55
2022/03/24 10:05:01;;;;;;;36.75;21.27;;;32.80;89.80;;;;;;5108131;28;20020;-59
2022/03/24 10:07:33;;;;;;;26.63;18.15;;;32.80;88.80;;;;;;5108932;28;20032;-60
2022/03/24 10:10:02;;;;;;;31.98;21.00;;;32.60;89.10;;;;;;5114799;28;20028;-57
2022/03/24 10:12:36;;;;;;;39.28;21.58;;;32.70;90.30;;;;;;5107902;28;20051;-59
2022/03/24 10:15:04;;;;;;;37.20;22.00;;;32.70;90.20;;;;;;5110384;28;20468;-59
2022/03/24 10:17:32;;;;;;;32.97;19.52;;;32.80;90.50;;;;;;5109281;28;20034;-55
2022/03/24 10:20:00;;;;;;;27.75;17.25;;;32.80;88.90;;;;;;5112228;28;20033;-60
2022/03/24 10:22:27;;;;;;;43.40;19.67;;;32.60;90.00;;;;;;5098651;28;20107;-59
2022/03/24 10:24:54;;;;;;;34.55;21.05;;;32.60;90.00;;;;;;5104045;28;20078;-60
2022/03/24 10:27:27;;;;;;;32.50;18.40;;;32.60;90.80;;;;;;5110960;28;20427;-60
2022/03/24 10:29:56;;;;;;;36.85;22.38;;;32.60;90.70;;;;;;5112916;28;20035;-60
2022/03/24 10:32:33;;;;;;;36.08;19.70;;;32.60;90.90;;;;;;5108187;28;20016;-60
2022/03/24 10:35:13;;;;;;;34.88;21.02;;;32.50;91.60;;;;;;5109014;28;20396;-60
2022/03/24 10:37:49;;;;;;;31.73;20.38;;;32.30;92.40;;;;;;5113398;28;20425;-61
2022/03/24 10:40:15;;;;;;;41.38;26.33;;;32.30;92.60;;;;;;5115120;28;20123;-61
2022/03/24 10:42:45;;;;;;;45.42;25.75;;;32.30;92.70;;;;;;5111476;28;20087;-61
2022/03/24 10:45:17;;;;;;;110.30;80.40;;;32.20;93.20;;;;;;5115078;28;20489;-60
2022/03/24 10:47:46;;;;;;;56.83;37.90;;;32.20;93.30;;;;;;5115411;28;20464;-60
2022/03/24 10:50:23;;;;;;;74.10;48.97;;;32.10;93.80;;;;;;5111542;28;20027;-61
2022/03/24 10:52:53;;;;;;;65.90;42.55;;;32.00;93.90;;;;;;5110200;28;20032;-58
2022/03/24 10:55:44;;;;;;;70.18;48.50;;;32.10;94.50;;;;;;5112347;28;20019;-58
2022/03/24 10:58:25;;;;;;;69.73;51.17;;;32.10;94.60;;;;;;5107656;28;20027;-58
2022/03/24 11:00:54;;;;;;;44.10;23.63;;;32.20;94.60;;;;;;5112896;28;20096;-59
2022/03/24 11:03:22;;;;;;;36.15;20.40;;;32.00;94.70;;;;;;5110068;28;20012;-59
2022/03/24 11:05:49;;;;;;;29.77;18.08;;;31.90;95.00;;;;;;5107962;28;20036;-59
2022/03/24 11:08:18;;;;;;;32.85;16.73;;;31.80;95.50;;;;;;5104028;28;20032;-59
2022/03/24 11:10:49;;;;;;;26.98;18.55;;;31.70;95.70;;;;;;5109805;28;20054;-60
2022/03/24 11:13:46;;;;;;;25.13;16.00;;;31.60;96.20;;;;;;5111732;28;20426;-60
2022/03/24 11:16:14;;;;;;;28.58;17.92;;;31.60;96.40;;;;;;5092460;28;20062;-60
2022/03/24 11:18:41;;;;;;;25.08;15.93;;;31.50;96.70;;;;;;5108279;28;20550;-58
2022/03/24 11:21:22;;;;;;;30.48;16.83;;;31.40;96.70;;;;;;5113989;28;20463;-59
2022/03/24 11:23:53;;;;;;;29.67;18.80;;;31.40;97.00;;;;;;5114511;28;20019;-58
2022/03/24 11:26:22;;;;;;;29.17;18.40;;;31.40;97.20;;;;;;5113838;28;20024;-56
2022/03/24 11:28:50;;;;;;;29.98;20.02;;;31.40;97.40;;;;;;5108766;28;20042;-57
2022/03/24 11:31:18;;;;;;;37.58;19.85;;;31.40;97.60;;;;;;5105857;28;20054;-59
2022/03/24 11:33:47;;;;;;;33.03;19.20;;;31.30;97.50;;;;;;5107341;28;20024;-60
2022/03/24 11:36:17;;;;;;;36.38;19.67;;;31.30;98.10;;;;;;5106728;28;20425;-57
2022/03/24 11:38:48;;;;;;;26.63;17.25;;;31.30;98.50;;;;;;5085249;28;20115;-57
2022/03/24 11:41:28;;;;;;;130.77;115.65;;;31.30;98.40;;;;;;5107224;28;20058;-54
2022/03/24 11:44:03;;;;;;;65.30;45.15;;;31.30;98.80;;;;;;5112592;28;20127;-54
2022/03/24 11:46:32;;;;;;;77.78;56.88;;;31.30;99.10;;;;;;5105512;28;20032;-59
2022/03/24 11:49:21;;;;;;;35.45;24.33;;;31.40;99.10;;;;;;5100397;28;20080;-63
2022/03/24 11:51:51;;;;;;;47.70;25.70;;;31.40;99.10;;;;;;5108722;28;20020;-56
2022/03/24 11:54:28;;;;;;;46.75;30.17;;;31.40;99.00;;;;;;5105438;28;20052;-55
2022/03/24 11:57:23;;;;;;;43.80;28.77;;;31.40;99.40;;;;;;5104734;28;20023;-55
2022/03/24 11:59:51;;;;;;;42.33;25.73;;;31.30;99.50;;;;;;5100016;28;20027;-57
2022/03/24 12:02:19;;;;;;;49.60;31.67;;;31.30;99.80;;;;;;5108252;28;20024;-55
2022/03/24 12:04:48;;;;;;;35.17;21.42;;;31.30;99.80;;;;;;5109958;28;20038;-57
2022/03/24 12:07:17;;;;;;;31.27;19.45;;;31.20;99.90;;;;;;5109669;28;20032;-58
2022/03/24 12:10:04;;;;;;;31.05;19.88;;;31.30;99.90;;;;;;5105303;28;20387;-57
2022/03/24 12:12:31;;;;;;;30.60;19.45;;;31.30;99.90;;;;;;5105507;28;20497;-59
2022/03/24 12:14:58;;;;;;;33.90;20.25;;;31.30;99.90;;;;;;5104154;28;20028;-60
2022/03/24 12:17:31;;;;;;;34.83;21.52;;;31.30;99.90;;;;;;5102648;28;20116;-58
2022/03/24 12:20:00;;;;;;;53.60;34.88;;;31.20;99.90;;;;;;5106877;28;20024;-56
2022/03/24 12:22:28;;;;;;;66.53;45.47;;;31.20;99.90;;;;;;5109452;28;20095;-62
2022/03/24 12:25:17;;;;;;;48.50;29.17;;;31.20;99.90;;;;;;5108889;28;20020;-58
2022/03/24 12:27:59;;;;;;;37.03;22.42;;;31.20;99.90;;;;;;5106222;28;20380;-59
2022/03/24 12:30:26;;;;;;;47.33;30.10;;;31.20;99.90;;;;;;5105344;28;20284;-60
2022/03/24 12:33:05;;;;;;;53.92;38.85;;;31.10;99.90;;;;;;5100240;28;20134;-59
2022/03/24 12:35:44;;;;;;;34.13;23.05;;;31.10;99.90;;;;;;5103032;28;20077;-59
2022/03/24 12:38:34;;;;;;;32.83;21.85;;;31.10;99.90;;;;;;5112553;22;20084;-59